createdAt,value
2018-02-04T00:01:32.434Z,99.90
2018-02-04T00:03:59.933Z,99.90
2018-02-04T00:06:27.493Z,99.90
2018-02-04T00:08:54.993Z,99.90
2018-02-04T00:11:22.485Z,99.90
2018-02-04T00:13:50.770Z,99.90
2018-02-04T00:16:18.329Z,99.90
2018-02-04T00:18:46.585Z,99.90
2018-02-04T00:21:14.101Z,99.90
2018-02-04T00:23:42.052Z,99.90
2018-02-04T00:26:09.573Z,99.90
2018-02-04T00:28:37.853Z,99.90
2018-02-04T00:31:06.113Z,99.90
2018-02-04T00:33:34.423Z,99.90
2018-02-04T00:36:02.681Z,99.90
2018-02-04T00:38:30.937Z,99.90
2018-02-04T00:40:58.462Z,99.90
2018-02-04T00:43:25.969Z,99.90
2018-02-04T00:45:53.481Z,99.90
2018-02-04T00:48:20.971Z,99.90
2018-02-04T00:50:48.466Z,99.90
2018-02-04T00:53:16.741Z,99.90
2018-02-04T00:55:45.006Z,99.90
2018-02-04T00:58:13.289Z,99.90
2018-02-04T01:00:41.549Z,99.90
2018-02-04T01:03:09.057Z,99.90
2018-02-04T01:05:36.565Z,99.90
2018-02-04T01:08:04.053Z,99.90
2018-02-04T01:10:32.334Z,99.90
2018-02-04T01:12:59.849Z,99.90
2018-02-04T01:15:27.346Z,99.90
2018-02-04T01:17:55.618Z,99.90
2018-02-04T01:20:23.890Z,99.90
2018-02-04T01:22:52.173Z,99.90
2018-02-04T01:25:20.425Z,99.90
2018-02-04T01:27:47.913Z,99.90
2018-02-04T01:30:16.185Z,99.90
2018-02-04T01:32:44.446Z,99.90
2018-02-04T01:35:12.734Z,99.90
2018-02-04T01:37:40.989Z,99.90
2018-02-04T01:40:08.481Z,99.90
2018-02-04T01:42:36.002Z,99.90
2018-02-04T01:45:03.499Z,99.90
2018-02-04T01:47:31.045Z,99.90
2018-02-04T01:49:59.321Z,99.90
2018-02-04T01:52:27.573Z,99.90
2018-02-04T01:54:55.086Z,99.90
2018-02-04T01:57:22.581Z,99.90
2018-02-04T01:59:50.109Z,99.90
2018-02-04T02:02:17.597Z,99.90
2018-02-04T02:04:45.089Z,99.90
2018-02-04T02:07:13.365Z,99.90
2018-02-04T02:09:41.637Z,99.90
2018-02-04T02:12:09.925Z,99.90
2018-02-04T02:14:38.193Z,99.90
2018-02-04T02:17:06.466Z,99.90
2018-02-04T02:19:35.769Z,99.90
2018-02-04T02:22:04.084Z,99.90
2018-02-04T02:24:32.322Z,99.90
2018-02-04T02:27:00.584Z,99.90
2018-02-04T02:29:28.077Z,99.90
2018-02-04T02:31:56.375Z,99.90
2018-02-04T02:34:23.874Z,99.90
2018-02-04T02:36:52.170Z,99.90
2018-02-04T02:39:20.430Z,99.90
2018-02-04T02:41:47.917Z,99.90
2018-02-04T02:44:16.185Z,99.90
2018-02-04T02:46:44.447Z,99.90
2018-02-04T02:49:11.973Z,99.90
2018-02-04T02:51:39.473Z,99.90
2018-02-04T02:54:07.745Z,99.90
2018-02-04T02:56:35.279Z,99.90
2018-02-04T02:59:02.769Z,99.90
2018-02-04T03:01:31.050Z,99.90
2018-02-04T03:03:59.305Z,99.90
2018-02-04T03:06:26.797Z,99.90
2018-02-04T03:08:55.081Z,99.90
2018-02-04T03:11:22.578Z,99.90
2018-02-04T03:13:50.069Z,99.90
2018-02-04T03:16:17.581Z,99.90
2018-02-04T03:18:46.091Z,99.90
2018-02-04T03:21:13.577Z,99.90
2018-02-04T03:23:41.857Z,99.90
2018-02-04T03:26:10.114Z,99.90
2018-02-04T03:28:37.609Z,99.90
2018-02-04T03:31:05.166Z,99.90
2018-02-04T03:33:32.653Z,99.90
2018-02-04T03:36:01.164Z,99.90
2018-02-04T03:38:28.676Z,99.90
2018-02-04T03:40:57.095Z,99.90
2018-02-04T03:43:24.584Z,99.90
2018-02-04T03:45:52.869Z,99.90
2018-02-04T03:48:21.121Z,99.90
2018-02-04T03:50:48.634Z,99.90
2018-02-04T03:53:16.153Z,99.90
2018-02-04T03:55:43.641Z,99.90
2018-02-04T03:58:11.149Z,99.90
2018-02-04T04:00:38.753Z,99.90
2018-02-04T04:03:06.316Z,99.90
2018-02-04T04:05:33.787Z,99.90
2018-02-04T04:08:01.313Z,99.90
2018-02-04T04:10:29.569Z,99.90
2018-02-04T04:12:57.067Z,99.90
2018-02-04T04:15:24.646Z,99.90
2018-02-04T04:17:52.174Z,99.90
2018-02-04T04:20:20.438Z,98.90
2018-02-04T04:22:49.646Z,99.30
2018-02-04T04:25:17.901Z,98.80
2018-02-04T04:27:46.905Z,98.90
2018-02-04T04:30:14.419Z,98.90
2018-02-04T04:32:41.905Z,99.00
2018-02-04T04:35:09.397Z,98.90
2018-02-04T04:37:37.673Z,98.20
2018-02-04T04:40:05.946Z,97.90
2018-02-04T04:42:34.213Z,98.00
2018-02-04T04:45:02.497Z,97.90
2018-02-04T04:47:30.745Z,97.80
2018-02-04T04:49:58.233Z,97.80
2018-02-04T04:52:26.513Z,97.70
2018-02-04T04:54:54.786Z,97.60
2018-02-04T04:57:23.041Z,97.40
2018-02-04T04:59:50.556Z,97.40
2018-02-04T05:02:18.047Z,97.20
2018-02-04T05:04:45.536Z,96.50
2018-02-04T05:07:13.809Z,96.80
2018-02-04T05:09:42.069Z,96.00
2018-02-04T05:12:11.065Z,95.90
2018-02-04T05:14:39.364Z,95.20
2018-02-04T05:17:07.654Z,94.90
2018-02-04T05:19:35.161Z,94.90
2018-02-04T05:22:02.673Z,94.90
2018-02-04T05:24:30.191Z,94.30
2018-02-04T05:26:57.683Z,94.50
2018-02-04T05:29:25.953Z,93.50
2018-02-04T05:31:54.201Z,93.30
2018-02-04T05:34:21.689Z,93.20
2018-02-04T05:36:49.964Z,93.50
2018-02-04T05:39:18.213Z,93.30
2018-02-04T05:41:45.698Z,93.30
2018-02-04T05:44:13.977Z,93.10
2018-02-04T05:46:42.230Z,92.50
2018-02-04T05:49:10.489Z,92.40
2018-02-04T05:51:38.002Z,92.40
2018-02-04T05:54:05.513Z,92.70
2018-02-04T05:56:32.998Z,92.60
2018-02-04T05:59:02.282Z,93.10
2018-02-04T06:01:29.767Z,92.80
2018-02-04T06:03:58.017Z,92.70
2018-02-04T06:06:25.523Z,92.70
2018-02-04T06:08:53.031Z,92.10
2018-02-04T06:11:20.531Z,92.20
2018-02-04T06:13:48.074Z,92.30
2018-02-04T06:16:16.382Z,92.40
2018-02-04T06:18:43.881Z,92.40
2018-02-04T06:21:11.386Z,92.10
2018-02-04T06:23:38.893Z,92.40
2018-02-04T06:26:06.377Z,92.00
2018-02-04T06:28:34.663Z,92.00
2018-02-04T06:31:02.916Z,90.80
2018-02-04T06:33:31.181Z,90.30
2018-02-04T06:35:58.689Z,90.30
2018-02-04T06:38:26.249Z,90.50
2018-02-04T06:40:54.501Z,90.20
2018-02-04T06:43:23.823Z,90.70
2018-02-04T06:45:52.081Z,90.40
2018-02-04T06:48:20.333Z,90.50
2018-02-04T06:50:47.830Z,90.50
2018-02-04T06:53:16.125Z,90.30
2018-02-04T06:55:43.617Z,90.30
2018-02-04T06:58:11.130Z,90.50
2018-02-04T07:00:38.691Z,90.10
2018-02-04T07:03:06.198Z,89.70
2018-02-04T07:05:35.225Z,88.80
2018-02-04T07:08:04.397Z,89.60
2018-02-04T07:10:31.884Z,89.10
2018-02-04T07:13:00.153Z,87.80
2018-02-04T07:15:27.652Z,87.80
2018-02-04T07:17:55.149Z,88.30
2018-02-04T07:20:22.659Z,88.60
2018-02-04T07:22:50.166Z,89.10
2018-02-04T07:25:17.651Z,88.60
2018-02-04T07:27:45.937Z,89.40
2018-02-04T07:30:14.189Z,88.50
2018-02-04T07:32:41.684Z,88.50
2018-02-04T07:35:09.233Z,88.50
2018-02-04T07:37:37.494Z,87.40
2018-02-04T07:40:04.978Z,87.30
2018-02-04T07:42:32.501Z,88.00
2018-02-04T07:44:59.985Z,87.40
2018-02-04T07:47:28.238Z,87.50
2018-02-04T07:49:56.513Z,86.20
2018-02-04T07:52:24.004Z,86.30
2018-02-04T07:54:51.566Z,87.20
2018-02-04T07:57:19.143Z,87.50
2018-02-04T07:59:46.633Z,87.00
2018-02-04T08:02:14.122Z,86.40
2018-02-04T08:04:42.394Z,87.40
2018-02-04T08:07:09.885Z,87.40
2018-02-04T08:09:37.385Z,89.00
2018-02-04T08:12:04.890Z,88.40
2018-02-04T08:14:33.133Z,88.20
2018-02-04T08:17:00.617Z,88.20
2018-02-04T08:19:28.925Z,89.00
2018-02-04T08:21:56.417Z,89.00
2018-02-04T08:24:23.898Z,88.70
2018-02-04T08:26:52.183Z,90.00
2018-02-04T08:29:20.434Z,88.90
2018-02-04T08:31:47.915Z,88.90
2018-02-04T08:34:16.189Z,90.00
2018-02-04T08:36:44.449Z,89.50
2018-02-04T08:39:11.937Z,89.50
2018-02-04T08:41:40.205Z,88.40
2018-02-04T08:44:08.458Z,88.50
2018-02-04T08:46:35.946Z,88.50
2018-02-04T08:49:04.270Z,87.60
2018-02-04T08:51:31.750Z,87.60
2018-02-04T08:53:59.235Z,86.00
2018-02-04T08:56:27.530Z,86.30
2018-02-04T08:58:55.779Z,86.20
2018-02-04T09:01:23.267Z,86.20
2018-02-04T09:03:50.804Z,87.30
2018-02-04T09:06:19.085Z,87.20
2018-02-04T09:08:47.337Z,86.90
2018-02-04T09:11:15.623Z,87.90
2018-02-04T09:13:43.122Z,87.90
2018-02-04T09:16:10.621Z,88.30
2018-02-04T09:18:38.129Z,87.70
2018-02-04T09:21:05.645Z,87.90
2018-02-04T09:23:33.129Z,86.90
2018-02-04T09:26:01.405Z,87.60
2018-02-04T09:28:29.654Z,87.10
2018-02-04T09:30:57.146Z,87.10
2018-02-04T09:33:25.409Z,88.00
2018-02-04T09:35:53.671Z,88.60
2018-02-04T09:38:21.153Z,88.60
2018-02-04T09:40:49.421Z,88.80
2018-02-04T09:43:18.700Z,89.20
2018-02-04T09:45:46.181Z,88.70
2018-02-04T09:48:14.461Z,87.30
2018-02-04T09:50:42.757Z,86.50
2018-02-04T09:53:10.261Z,86.50
2018-02-04T09:55:37.765Z,87.30
2018-02-04T09:58:06.025Z,86.60
2018-02-04T10:00:33.515Z,86.60
2018-02-04T10:03:01.069Z,86.80
2018-02-04T10:05:28.569Z,86.70
2018-02-04T10:07:56.054Z,87.90
2018-02-04T10:10:24.341Z,88.60
2018-02-04T10:12:52.590Z,89.00
2018-02-04T10:15:20.089Z,89.00
2018-02-04T10:17:48.373Z,89.50
2018-02-04T10:20:15.913Z,89.50
2018-02-04T10:22:44.189Z,90.50
2018-02-04T10:25:13.507Z,90.50
2018-02-04T10:27:41.043Z,90.50
2018-02-04T10:30:08.532Z,90.60
2018-02-04T10:32:36.058Z,90.40
2018-02-04T10:35:03.545Z,90.90
2018-02-04T10:37:31.798Z,90.70
2018-02-04T10:39:59.326Z,90.70
2018-02-04T10:42:26.823Z,91.10
2018-02-04T10:44:55.079Z,90.70
2018-02-04T10:47:22.594Z,90.60
2018-02-04T10:49:50.088Z,90.90
2018-02-04T10:52:17.608Z,91.20
2018-02-04T10:54:45.119Z,91.60
2018-02-04T10:57:14.106Z,91.70
2018-02-04T10:59:41.593Z,91.60
2018-02-04T11:02:09.881Z,92.10
2018-02-04T11:04:37.401Z,92.40
2018-02-04T11:07:04.881Z,92.20
2018-02-04T11:09:33.180Z,92.10
2018-02-04T11:12:00.682Z,92.00
2018-02-04T11:14:28.169Z,91.70
2018-02-04T11:16:56.454Z,92.30
2018-02-04T11:19:24.778Z,91.70
2018-02-04T11:21:52.254Z,91.70
2018-02-04T11:24:19.770Z,91.30
2018-02-04T11:26:47.278Z,91.40
2018-02-04T11:29:14.757Z,91.70
2018-02-04T11:31:42.266Z,91.30
2018-02-04T11:34:10.680Z,90.90
2018-02-04T11:36:38.216Z,90.60
2018-02-04T11:39:05.734Z,91.00
2018-02-04T11:41:33.291Z,91.10
2018-02-04T11:44:01.546Z,90.70
2018-02-04T11:46:29.091Z,90.70
2018-02-04T11:48:56.578Z,90.40
2018-02-04T11:51:24.825Z,90.60
2018-02-04T11:53:52.330Z,90.60
2018-02-04T11:56:19.845Z,90.50
2018-02-04T11:58:47.336Z,91.10
2018-02-04T12:01:15.609Z,91.10
2018-02-04T12:03:43.873Z,90.90
2018-02-04T12:06:11.372Z,90.90
2018-02-04T12:08:38.897Z,91.50
2018-02-04T12:11:07.184Z,91.90
2018-02-04T12:13:35.445Z,91.30
2018-02-04T12:16:02.950Z,91.30
2018-02-04T12:18:30.430Z,91.80
2018-02-04T12:20:57.921Z,91.80
2018-02-04T12:23:26.347Z,91.60
2018-02-04T12:25:53.833Z,91.50
2018-02-04T12:28:21.351Z,91.70
2018-02-04T12:30:48.894Z,91.90
2018-02-04T12:33:17.238Z,91.30
2018-02-04T12:35:44.776Z,91.30
2018-02-04T12:38:12.285Z,91.40
2018-02-04T12:40:40.549Z,91.70
2018-02-04T12:43:08.034Z,91.70
2018-02-04T12:45:35.570Z,91.80
2018-02-04T12:48:03.838Z,91.60
2018-02-04T12:50:32.137Z,91.80
2018-02-04T12:53:00.417Z,91.60
2018-02-04T12:55:28.702Z,91.30
2018-02-04T12:57:56.207Z,91.30
2018-02-04T13:00:23.727Z,91.10
2018-02-04T13:02:51.226Z,91.50
2018-02-04T13:05:18.820Z,91.40
2018-02-04T13:07:47.137Z,92.50
2018-02-04T13:10:14.642Z,92.50
2018-02-04T13:12:42.164Z,93.40
2018-02-04T13:15:09.741Z,94.20
2018-02-04T13:17:37.241Z,94.60
2018-02-04T13:20:05.513Z,95.60
2018-02-04T13:22:33.837Z,96.20
2018-02-04T13:25:01.333Z,96.20
2018-02-04T13:27:28.818Z,95.70
2018-02-04T13:29:57.098Z,94.40
2018-02-04T13:32:24.609Z,94.40
2018-02-04T13:34:52.289Z,93.30
2018-02-04T13:37:20.256Z,93.40
2018-02-04T13:39:47.753Z,92.60
2018-02-04T13:42:16.006Z,90.60
2018-02-04T13:44:44.293Z,90.30
2018-02-04T13:47:12.582Z,88.40
2018-02-04T13:49:40.976Z,89.30
2018-02-04T13:52:08.494Z,89.10
2018-02-04T13:54:35.982Z,88.30
2018-02-04T13:57:03.491Z,88.60
2018-02-04T13:59:30.998Z,86.30
2018-02-04T14:01:58.522Z,85.50
2018-02-04T14:04:26.040Z,82.90
2018-02-04T14:06:53.590Z,81.40
2018-02-04T14:09:21.129Z,82.10
2018-02-04T14:11:49.414Z,81.10
2018-02-04T14:14:16.949Z,81.10
2018-02-04T14:16:45.238Z,80.70
2018-02-04T14:19:13.503Z,79.80
2018-02-04T14:21:42.788Z,80.00
2018-02-04T14:24:11.069Z,79.10
2018-02-04T14:26:38.574Z,79.10
2018-02-04T14:29:06.121Z,75.90
2018-02-04T14:31:33.635Z,74.70
2018-02-04T14:34:01.155Z,75.00
2018-02-04T14:36:28.719Z,75.20
2018-02-04T14:38:57.245Z,76.70
2018-02-04T14:41:24.757Z,76.60
2018-02-04T14:43:52.297Z,76.50
2018-02-04T14:46:20.552Z,78.00
2018-02-04T14:48:48.809Z,78.00
2018-02-04T14:51:16.313Z,78.00
2018-02-04T14:53:43.819Z,78.00
2018-02-04T14:56:11.309Z,79.20
2018-02-04T14:58:39.599Z,79.10
2018-02-04T15:01:07.112Z,79.10
2018-02-04T15:03:34.600Z,79.30
2018-02-04T15:06:02.942Z,80.10
2018-02-04T15:08:30.441Z,80.00
2018-02-04T15:10:58.713Z,81.20
2018-02-04T15:13:27.901Z,81.50
2018-02-04T15:15:55.397Z,81.30
2018-02-04T15:18:22.897Z,82.40
2018-02-04T15:20:50.424Z,82.70
2018-02-04T15:23:18.037Z,83.70
2018-02-04T15:25:45.598Z,84.50
2018-02-04T15:28:13.183Z,85.70
2018-02-04T15:30:41.454Z,87.90
2018-02-04T15:33:09.709Z,88.60
2018-02-04T15:35:37.512Z,88.60
2018-02-04T15:38:05.007Z,89.60
2018-02-04T15:40:32.505Z,89.50
2018-02-04T15:43:01.697Z,90.20
2018-02-04T15:45:29.185Z,90.20
2018-02-04T15:47:56.693Z,90.00
2018-02-04T15:50:24.282Z,89.80
2018-02-04T15:52:52.571Z,90.20
2018-02-04T15:55:20.827Z,90.30
2018-02-04T15:57:50.138Z,90.60
2018-02-04T16:00:18.426Z,90.00
2018-02-04T16:02:46.685Z,90.40
2018-02-04T16:05:14.964Z,90.60
2018-02-04T16:07:43.225Z,90.80
2018-02-04T16:10:10.734Z,90.60
2018-02-04T16:12:38.269Z,90.80
2018-02-04T16:15:06.537Z,91.20
2018-02-04T16:17:35.818Z,91.00
2018-02-04T16:20:04.846Z,91.20
2018-02-04T16:22:33.117Z,91.30
2018-02-04T16:25:01.374Z,91.40
2018-02-04T16:27:30.396Z,91.30
2018-02-04T16:29:58.657Z,91.30
2018-02-04T16:32:26.917Z,91.10
2018-02-04T16:34:54.433Z,91.10
2018-02-04T16:37:21.922Z,91.50
2018-02-04T16:39:49.421Z,91.20
2018-02-04T16:42:17.722Z,90.60
2018-02-04T16:44:51.298Z,90.60
2018-02-04T16:47:18.815Z,90.80
2018-02-04T16:49:46.346Z,90.40
2018-02-04T16:52:13.881Z,90.10
2018-02-04T16:54:41.412Z,90.60
2018-02-04T16:57:09.680Z,90.70
2018-02-04T16:59:37.186Z,90.70
2018-02-04T17:02:04.705Z,90.60
2018-02-04T17:04:32.213Z,90.60
2018-02-04T17:07:00.467Z,91.30
2018-02-04T17:09:27.986Z,91.30
2018-02-04T17:11:55.486Z,91.40
2018-02-04T17:14:23.033Z,91.50
2018-02-04T17:16:50.577Z,91.40
2018-02-04T17:19:18.074Z,91.60
2018-02-04T17:21:46.332Z,91.50
2018-02-04T17:24:13.869Z,91.50
2018-02-04T17:26:41.374Z,91.60
2018-02-04T17:29:09.661Z,91.50
2018-02-04T17:31:37.946Z,91.70
2018-02-04T17:34:05.458Z,91.70
2018-02-04T17:36:32.978Z,91.70
2018-02-04T17:39:00.537Z,91.50
2018-02-04T17:41:28.065Z,91.40
2018-02-04T17:43:56.342Z,91.10
2018-02-04T17:46:24.628Z,91.20
2018-02-04T17:48:52.891Z,91.20
2018-02-04T17:53:55.214Z,91.30
2018-02-04T17:56:22.723Z,91.00
2018-02-04T17:58:50.227Z,91.00
2018-02-04T18:01:17.828Z,90.80
2018-02-04T18:03:45.331Z,90.40
2018-02-04T18:06:12.863Z,90.60
2018-02-04T18:08:40.370Z,90.50
2018-02-04T18:11:07.897Z,90.40
2018-02-04T18:13:36.200Z,90.40
2018-02-04T18:16:03.707Z,90.40
2018-02-04T18:18:31.205Z,90.10
2018-02-04T18:20:58.738Z,90.50
2018-02-04T18:23:26.225Z,90.40
2018-02-04T18:25:54.507Z,90.30
2018-02-04T18:28:22.068Z,90.30
2018-02-04T18:30:49.745Z,90.20
2018-02-04T18:33:17.318Z,90.30
2018-02-04T18:35:44.829Z,90.10
2018-02-04T18:38:13.093Z,90.60
